createdAt,value
2016-10-27T00:00:09.476Z,0
2016-10-27T00:01:09.474Z,0
2016-10-27T00:02:09.541Z,0
2016-10-27T00:03:09.512Z,0
2016-10-27T00:04:09.609Z,0
2016-10-27T00:05:09.562Z,0
2016-10-27T00:06:09.549Z,0
2016-10-27T00:07:09.591Z,0
2016-10-27T00:08:09.587Z,0
2016-10-27T00:09:09.613Z,0
2016-10-27T00:10:09.632Z,0
2016-10-27T00:11:09.654Z,0
2016-10-27T00:12:09.667Z,0
2016-10-27T00:13:09.686Z,0
2016-10-27T00:14:09.720Z,0
2016-10-27T00:15:09.728Z,0
2016-10-27T00:16:09.715Z,0
2016-10-27T00:17:09.759Z,0
2016-10-27T00:18:09.771Z,0
2016-10-27T00:19:09.786Z,0
2016-10-27T00:20:09.821Z,0
2016-10-27T00:21:09.828Z,0
2016-10-27T00:22:09.852Z,0
2016-10-27T00:23:09.859Z,0
2016-10-27T00:24:09.876Z,0
2016-10-27T00:25:09.891Z,0
2016-10-27T00:26:09.910Z,0
2016-10-27T00:27:10.048Z,0
2016-10-27T00:28:09.931Z,0
2016-10-27T00:29:09.950Z,0
2016-10-27T00:30:10.023Z,0
2016-10-27T00:31:09.992Z,0
2016-10-27T00:32:10.002Z,0
2016-10-27T00:33:10.063Z,0
2016-10-27T00:34:10.050Z,0
2016-10-27T00:35:10.057Z,0
2016-10-27T00:36:10.050Z,0
2016-10-27T00:37:10.149Z,0
2016-10-27T00:38:10.108Z,0
2016-10-27T00:39:10.127Z,0
2016-10-27T00:40:10.151Z,0
2016-10-27T00:41:10.163Z,0
2016-10-27T00:42:10.201Z,0
2016-10-27T00:43:10.190Z,0
2016-10-27T00:44:10.242Z,0
2016-10-27T00:45:10.214Z,0
2016-10-27T00:46:10.291Z,0
2016-10-27T00:47:10.271Z,0
2016-10-27T00:48:10.284Z,0
2016-10-27T00:49:10.299Z,0
2016-10-27T00:50:10.345Z,0
2016-10-27T00:51:10.311Z,0
2016-10-27T00:52:10.346Z,0
2016-10-27T00:53:10.414Z,0
2016-10-27T00:54:10.398Z,0
2016-10-27T00:55:10.392Z,0
2016-10-27T00:56:10.415Z,0
2016-10-27T00:57:10.431Z,0
2016-10-27T00:58:10.442Z,0
2016-10-27T00:59:10.459Z,0
2016-10-27T01:00:10.484Z,0
2016-10-27T01:01:10.483Z,0
2016-10-27T01:02:10.498Z,0
2016-10-27T01:03:10.560Z,0
2016-10-27T01:04:10.535Z,0
2016-10-27T01:05:10.537Z,0
2016-10-27T01:06:10.569Z,0
2016-10-27T01:07:10.726Z,0
2016-10-27T01:08:10.643Z,0
2016-10-27T01:09:10.730Z,0
2016-10-27T01:10:10.650Z,0
2016-10-27T01:11:10.655Z,0
2016-10-27T01:12:10.673Z,0
2016-10-27T01:13:10.728Z,0
2016-10-27T01:14:10.717Z,0
2016-10-27T01:15:10.735Z,0
2016-10-27T01:16:10.722Z,0
2016-10-27T01:17:10.829Z,0
2016-10-27T01:18:10.767Z,0
2016-10-27T01:19:10.831Z,0
2016-10-27T01:20:10.825Z,0
2016-10-27T01:21:10.839Z,0
2016-10-27T01:22:10.850Z,0
2016-10-27T01:23:10.867Z,0
2016-10-27T01:24:10.858Z,0
2016-10-27T01:25:10.938Z,0
2016-10-27T01:26:10.906Z,0
2016-10-27T01:27:10.917Z,0
2016-10-27T01:28:10.959Z,0
2016-10-27T01:29:10.958Z,0
2016-10-27T01:30:10.957Z,0
2016-10-27T01:31:11.013Z,0
2016-10-27T01:32:11.010Z,0
2016-10-27T01:33:11.050Z,0
2016-10-27T01:34:11.039Z,0
2016-10-27T01:35:11.051Z,0
2016-10-27T01:36:11.072Z,0
2016-10-27T01:37:11.112Z,0
2016-10-27T01:38:11.117Z,0
2016-10-27T01:39:11.121Z,0
2016-10-27T01:40:11.150Z,0
2016-10-27T01:41:11.164Z,0
2016-10-27T01:42:11.182Z,0
2016-10-27T01:43:11.194Z,0
2016-10-27T01:44:11.250Z,0
2016-10-27T01:45:11.234Z,0
2016-10-27T01:46:11.248Z,0
2016-10-27T01:47:11.267Z,0
2016-10-27T01:48:11.283Z,0
2016-10-27T01:49:11.318Z,0
2016-10-27T01:50:11.328Z,0
2016-10-27T01:51:11.357Z,0
2016-10-27T01:52:11.344Z,0
2016-10-27T01:53:11.370Z,0
2016-10-27T01:54:11.411Z,0
2016-10-27T01:55:11.446Z,0
2016-10-27T01:56:11.451Z,0
2016-10-27T01:57:11.414Z,0
2016-10-27T01:58:11.474Z,0
2016-10-27T01:59:11.471Z,0
2016-10-27T02:00:11.488Z,0
2016-10-27T02:01:11.544Z,0
2016-10-27T02:02:11.539Z,0
2016-10-27T02:03:11.541Z,0
2016-10-27T02:04:11.579Z,0
2016-10-27T02:05:11.570Z,0
2016-10-27T02:06:11.600Z,0
2016-10-27T02:07:11.583Z,0
2016-10-27T02:08:11.598Z,0
2016-10-27T02:09:11.613Z,0
2016-10-27T02:10:11.641Z,0
2016-10-27T02:11:11.670Z,0
2016-10-27T02:12:11.649Z,0
2016-10-27T02:13:11.713Z,0
2016-10-27T02:14:11.704Z,0
2016-10-27T02:15:11.739Z,0
2016-10-27T02:16:11.751Z,0
2016-10-27T02:17:11.782Z,0
2016-10-27T02:18:11.780Z,0
2016-10-27T02:19:11.818Z,0
2016-10-27T02:20:11.822Z,0
2016-10-27T02:21:11.817Z,0
2016-10-27T02:22:11.850Z,0
2016-10-27T02:23:11.858Z,0
2016-10-27T02:24:11.871Z,0
2016-10-27T02:25:11.899Z,0
2016-10-27T02:26:11.919Z,0
2016-10-27T02:27:11.945Z,0
2016-10-27T02:28:11.956Z,0
2016-10-27T02:29:11.943Z,0
2016-10-27T02:30:12.001Z,0
2016-10-27T02:31:11.992Z,0
2016-10-27T02:32:12.032Z,0
2016-10-27T02:33:12.018Z,0
2016-10-27T02:34:12.050Z,0
2016-10-27T02:35:12.071Z,0
2016-10-27T02:36:12.072Z,0
2016-10-27T02:37:12.095Z,0
2016-10-27T02:38:12.136Z,0
2016-10-27T02:39:12.121Z,0
2016-10-27T02:40:12.139Z,0
2016-10-27T02:41:12.154Z,0
2016-10-27T02:42:12.231Z,0
2016-10-27T02:43:12.193Z,0
2016-10-27T02:44:12.214Z,0
2016-10-27T02:45:12.235Z,0
2016-10-27T02:46:12.262Z,0
2016-10-27T02:47:12.271Z,0
2016-10-27T02:48:12.290Z,0
2016-10-27T02:49:12.305Z,0
2016-10-27T02:50:12.348Z,0
2016-10-27T02:51:12.340Z,0
2016-10-27T02:52:12.350Z,0
2016-10-27T02:53:12.375Z,0
2016-10-27T02:54:12.387Z,0
2016-10-27T02:55:12.416Z,0
2016-10-27T02:56:12.417Z,0
2016-10-27T02:57:12.432Z,0
2016-10-27T02:58:12.483Z,0
2016-10-27T02:59:12.492Z,0
2016-10-27T03:00:12.500Z,0
2016-10-27T03:01:12.510Z,0
2016-10-27T03:02:12.517Z,0
2016-10-27T03:03:12.536Z,0
2016-10-27T03:04:12.568Z,0
2016-10-27T03:05:12.566Z,0
2016-10-27T03:06:12.579Z,0
2016-10-27T03:07:12.603Z,0
2016-10-27T03:08:12.620Z,0
2016-10-27T03:09:12.640Z,0
2016-10-27T03:10:12.678Z,0
2016-10-27T03:11:12.694Z,0
2016-10-27T03:12:12.693Z,0
2016-10-27T03:13:12.704Z,0
2016-10-27T03:14:12.733Z,0
2016-10-27T03:15:12.743Z,0
2016-10-27T03:16:12.774Z,0
2016-10-27T03:17:12.761Z,0
2016-10-27T03:18:12.813Z,0
2016-10-27T03:19:12.818Z,0
2016-10-27T03:20:12.883Z,0
2016-10-27T03:21:12.856Z,0
2016-10-27T03:22:12.860Z,0
2016-10-27T03:23:12.877Z,0
2016-10-27T03:24:12.901Z,0
2016-10-27T03:25:12.908Z,0
2016-10-27T03:26:12.933Z,0
2016-10-27T03:27:12.942Z,0
2016-10-27T03:28:12.970Z,0
2016-10-27T03:29:12.980Z,0
2016-10-27T03:30:13.008Z,0
2016-10-27T03:31:13.029Z,0
2016-10-27T03:32:13.068Z,0
2016-10-27T03:33:13.061Z,0
2016-10-27T03:34:13.075Z,0
2016-10-27T03:35:13.079Z,0
2016-10-27T03:36:13.092Z,0
2016-10-27T03:37:13.110Z,0
2016-10-27T03:38:13.140Z,0
2016-10-27T03:39:13.146Z,0
2016-10-27T03:40:13.175Z,0
2016-10-27T03:41:13.207Z,0
2016-10-27T03:42:13.213Z,0
2016-10-27T03:43:13.227Z,0
2016-10-27T03:44:13.236Z,0
2016-10-27T03:45:13.266Z,0
2016-10-27T03:46:13.254Z,0
2016-10-27T03:47:13.303Z,0
2016-10-27T03:48:13.313Z,0
2016-10-27T03:49:13.338Z,0
2016-10-27T03:50:13.341Z,0
2016-10-27T03:51:13.376Z,0
2016-10-27T03:52:13.374Z,0
2016-10-27T03:53:13.388Z,0
2016-10-27T03:54:13.420Z,0
2016-10-27T03:55:13.428Z,0
2016-10-27T03:56:13.464Z,0
2016-10-27T03:57:13.461Z,0
2016-10-27T03:58:13.477Z,0
2016-10-27T03:59:13.500Z,0
2016-10-27T04:01:28.359Z,0
2016-10-27T04:02:13.581Z,0
2016-10-27T04:03:13.582Z,0
2016-10-27T04:04:13.585Z,0
2016-10-27T04:05:13.594Z,0
2016-10-27T04:06:13.611Z,0
2016-10-27T04:07:13.617Z,0
2016-10-27T04:08:13.646Z,0
2016-10-27T04:09:13.631Z,0
2016-10-27T04:10:13.660Z,0
2016-10-27T04:11:13.701Z,0
2016-10-27T04:12:13.718Z,0
2016-10-27T04:13:13.730Z,0
2016-10-27T04:14:13.754Z,0
2016-10-27T04:15:13.768Z,0
2016-10-27T04:16:13.773Z,0
2016-10-27T04:17:13.793Z,0
2016-10-27T04:18:13.812Z,0
2016-10-27T04:19:13.846Z,0
2016-10-27T04:20:13.853Z,0
2016-10-27T04:21:13.866Z,0
2016-10-27T04:22:13.876Z,0
2016-10-27T04:23:13.908Z,0
2016-10-27T04:24:13.909Z,0
2016-10-27T04:25:13.938Z,0
2016-10-27T04:26:13.949Z,0
2016-10-27T04:27:14.295Z,0
2016-10-27T04:28:13.969Z,0
2016-10-27T04:29:14.007Z,0
2016-10-27T04:30:14.014Z,0
2016-10-27T04:31:14.022Z,0
2016-10-27T04:32:14.053Z,0
2016-10-27T04:33:14.081Z,0
2016-10-27T04:34:14.075Z,0
2016-10-27T04:35:14.115Z,0
2016-10-27T04:36:14.161Z,0
2016-10-27T04:37:14.120Z,0
2016-10-27T04:38:14.143Z,0
2016-10-27T04:39:14.171Z,0
2016-10-27T04:40:14.189Z,0
2016-10-27T04:41:14.201Z,0
2016-10-27T04:42:14.215Z,0
2016-10-27T04:43:14.239Z,0
2016-10-27T04:44:14.301Z,0
2016-10-27T04:45:14.272Z,0
2016-10-27T04:46:14.317Z,0
2016-10-27T04:47:14.299Z,0
2016-10-27T04:48:14.327Z,0
2016-10-27T04:49:14.321Z,0
2016-10-27T04:50:14.350Z,0
2016-10-27T04:51:14.384Z,0
2016-10-27T04:52:14.376Z,0
2016-10-27T04:53:14.414Z,0
2016-10-27T04:54:14.413Z,0
2016-10-27T04:55:14.449Z,0
2016-10-27T04:56:14.458Z,0
2016-10-27T04:57:14.461Z,0
2016-10-27T04:58:14.490Z,0
2016-10-27T04:59:14.489Z,0
2016-10-27T05:00:14.541Z,0
2016-10-27T05:01:14.544Z,0
2016-10-27T05:02:14.553Z,0
2016-10-27T05:03:14.577Z,0
2016-10-27T05:04:14.591Z,0
2016-10-27T05:05:14.612Z,0
2016-10-27T05:06:14.649Z,0
2016-10-27T05:07:14.660Z,0
2016-10-27T05:08:14.666Z,0
2016-10-27T05:09:14.692Z,0
2016-10-27T05:10:14.713Z,0
2016-10-27T05:11:14.720Z,0
2016-10-27T05:12:14.736Z,0
2016-10-27T05:13:14.755Z,0
2016-10-27T05:14:14.767Z,0
2016-10-27T05:15:14.787Z,0
2016-10-27T05:16:14.823Z,0
2016-10-27T05:17:14.823Z,0
2016-10-27T05:18:14.844Z,0
2016-10-27T05:19:14.863Z,0
2016-10-27T05:20:14.878Z,0
2016-10-27T05:21:14.870Z,0
2016-10-27T05:22:14.897Z,0
2016-10-27T05:23:14.957Z,0
2016-10-27T05:24:14.923Z,0
2016-10-27T05:25:14.957Z,0
2016-10-27T05:26:14.971Z,0
2016-10-27T05:27:14.979Z,0
2016-10-27T05:28:14.999Z,0
2016-10-27T05:29:15.029Z,0
2016-10-27T05:30:15.050Z,0
2016-10-27T05:31:15.042Z,0
2016-10-27T05:32:15.081Z,0
2016-10-27T05:33:15.113Z,0
2016-10-27T05:34:15.103Z,0
2016-10-27T05:35:15.132Z,0
2016-10-27T05:36:15.138Z,0
2016-10-27T05:37:15.154Z,0
2016-10-27T05:38:15.169Z,0
2016-10-27T05:39:15.193Z,0
2016-10-27T05:40:15.211Z,0
2016-10-27T05:41:15.208Z,0
2016-10-27T05:42:15.241Z,0
2016-10-27T05:43:15.264Z,0
2016-10-27T05:44:15.309Z,0
2016-10-27T05:45:15.307Z,0
2016-10-27T05:46:15.302Z,0
2016-10-27T05:47:15.329Z,0
2016-10-27T05:48:15.334Z,0
2016-10-27T05:49:15.362Z,0
2016-10-27T05:50:15.355Z,0
2016-10-27T05:51:15.383Z,0
2016-10-27T05:52:15.457Z,0
2016-10-27T05:53:15.428Z,0
2016-10-27T05:54:15.436Z,0
2016-10-27T05:55:15.468Z,0
2016-10-27T05:56:15.472Z,0
2016-10-27T05:57:15.488Z,0
2016-10-27T05:58:15.506Z,0
2016-10-27T05:59:15.560Z,0
2016-10-27T06:00:15.547Z,0
2016-10-27T06:01:15.562Z,0
2016-10-27T06:02:15.582Z,0
2016-10-27T06:03:15.590Z,0
2016-10-27T06:04:15.617Z,0
2016-10-27T06:05:15.613Z,0
2016-10-27T06:06:15.679Z,0
2016-10-27T06:07:15.660Z,0
2016-10-27T06:08:15.690Z,0
2016-10-27T06:09:15.714Z,0
2016-10-27T06:10:15.714Z,0
2016-10-27T06:11:15.742Z,0
2016-10-27T06:12:15.791Z,0
2016-10-27T06:13:15.819Z,0
2016-10-27T06:14:15.794Z,0
2016-10-27T06:15:15.810Z,0
2016-10-27T06:16:15.841Z,0
2016-10-27T06:17:15.860Z,0
2016-10-27T06:18:15.863Z,0
2016-10-27T06:19:15.878Z,0
2016-10-27T06:20:15.881Z,0
2016-10-27T06:21:15.907Z,0
2016-10-27T06:22:15.929Z,0
2016-10-27T06:23:15.928Z,0
2016-10-27T06:24:15.989Z,0
2016-10-27T06:25:15.991Z,0
2016-10-27T06:26:15.984Z,0
2016-10-27T06:27:16.024Z,0
2016-10-27T06:28:16.009Z,0
2016-10-27T06:29:16.036Z,0
2016-10-27T06:30:16.051Z,0
2016-10-27T06:31:16.076Z,0
2016-10-27T06:32:16.092Z,0
2016-10-27T06:33:16.114Z,0
2016-10-27T06:34:16.118Z,0
2016-10-27T06:35:16.151Z,0
2016-10-27T06:36:16.172Z,0
2016-10-27T06:37:16.186Z,0
2016-10-27T06:38:16.194Z,0
2016-10-27T06:39:16.218Z,0
2016-10-27T06:40:16.247Z,0
2016-10-27T06:41:16.246Z,0
2016-10-27T06:42:16.286Z,0
2016-10-27T06:43:16.317Z,0
2016-10-27T06:44:16.309Z,0
2016-10-27T06:45:16.304Z,0
2016-10-27T06:46:16.332Z,0
2016-10-27T06:47:16.347Z,0
2016-10-27T06:48:16.377Z,0
2016-10-27T06:49:16.374Z,0
2016-10-27T06:50:16.408Z,0
2016-10-27T06:51:16.437Z,0
2016-10-27T06:52:16.423Z,0
2016-10-27T06:53:16.460Z,0
2016-10-27T06:54:16.794Z,0
2016-10-27T06:55:16.494Z,0
2016-10-27T06:56:16.550Z,0
2016-10-27T06:57:16.517Z,5
2016-10-27T06:58:16.540Z,5
2016-10-27T06:59:16.554Z,5
2016-10-27T07:00:16.574Z,5
2016-10-27T07:01:16.603Z,5
2016-10-27T07:02:16.623Z,5
2016-10-27T07:03:16.657Z,5
2016-10-27T07:04:16.666Z,5
2016-10-27T07:05:16.665Z,5
2016-10-27T07:06:16.715Z,5
2016-10-27T07:07:16.687Z,5
2016-10-27T07:08:16.701Z,5
2016-10-27T07:09:16.730Z,5
2016-10-27T07:10:16.745Z,5
2016-10-27T07:11:16.772Z,5
2016-10-27T07:12:16.763Z,5
2016-10-27T07:13:16.784Z,5
2016-10-27T07:14:16.807Z,10
2016-10-27T07:15:16.803Z,10
2016-10-27T07:16:16.845Z,10
2016-10-27T07:17:16.866Z,10
2016-10-27T07:18:16.891Z,10
2016-10-27T07:19:16.909Z,10
2016-10-27T07:20:16.900Z,10
2016-10-27T07:21:16.930Z,10
2016-10-27T07:22:16.949Z,10
2016-10-27T07:23:16.962Z,10
2016-10-27T07:24:16.961Z,10
2016-10-27T07:25:17.012Z,10
2016-10-27T07:26:17.032Z,10
2016-10-27T07:27:17.051Z,10
2016-10-27T07:28:17.029Z,10
2016-10-27T07:29:17.073Z,10
2016-10-27T07:30:17.087Z,10
2016-10-27T07:31:17.101Z,10
2016-10-27T07:32:17.114Z,15
2016-10-27T07:33:17.145Z,15
2016-10-27T07:34:17.157Z,15
2016-10-27T07:35:17.175Z,10
2016-10-27T07:36:17.176Z,10
2016-10-27T07:37:17.202Z,10
2016-10-27T07:38:17.237Z,10
2016-10-27T07:39:17.215Z,15
2016-10-27T07:40:17.258Z,15
2016-10-27T07:41:17.269Z,15
2016-10-27T07:42:17.288Z,15
2016-10-27T07:43:17.292Z,15
2016-10-27T07:44:17.322Z,15
2016-10-27T07:45:17.357Z,15
2016-10-27T07:46:17.366Z,15
2016-10-27T07:47:17.359Z,15
2016-10-27T07:48:17.405Z,15
2016-10-27T07:49:17.408Z,15
2016-10-27T07:50:17.425Z,15
2016-10-27T07:51:17.453Z,15
2016-10-27T07:52:17.461Z,20
2016-10-27T07:53:17.483Z,20
2016-10-27T07:54:17.505Z,20
2016-10-27T07:55:17.509Z,15
2016-10-27T07:56:17.548Z,20
2016-10-27T07:57:17.538Z,20
2016-10-27T07:58:17.570Z,20
2016-10-27T07:59:17.582Z,25
2016-10-27T08:00:17.602Z,20
2016-10-27T08:01:17.612Z,20
2016-10-27T08:02:17.641Z,20
2016-10-27T08:03:17.697Z,15
2016-10-27T08:04:17.678Z,15
2016-10-27T08:05:17.680Z,20
2016-10-27T08:06:17.715Z,20
2016-10-27T08:07:17.704Z,20
2016-10-27T08:08:17.762Z,20
2016-10-27T08:09:17.752Z,20
2016-10-27T08:10:17.786Z,20
2016-10-27T08:11:17.791Z,20
2016-10-27T08:12:17.791Z,20
2016-10-27T08:13:17.840Z,25
2016-10-27T08:14:17.858Z,25
2016-10-27T08:15:17.860Z,25
2016-10-27T08:16:17.882Z,30
2016-10-27T08:17:17.910Z,30
2016-10-27T08:18:17.916Z,35
2016-10-27T08:19:17.931Z,35
2016-10-27T08:20:17.955Z,40
2016-10-27T08:21:18.002Z,40
2016-10-27T08:22:18.007Z,40
2016-10-27T08:23:18.372Z,35
2016-10-27T08:24:18.023Z,35
2016-10-27T08:25:18.050Z,30
2016-10-27T08:26:18.061Z,30
2016-10-27T08:27:18.052Z,30
2016-10-27T08:28:18.091Z,30
2016-10-27T08:29:18.100Z,30
2016-10-27T08:30:18.115Z,30
2016-10-27T08:31:18.158Z,30
2016-10-27T08:32:18.147Z,35
2016-10-27T08:33:18.195Z,35
2016-10-27T08:34:18.209Z,35
2016-10-27T08:35:18.204Z,35
2016-10-27T08:36:18.233Z,35
2016-10-27T08:37:18.254Z,35
2016-10-27T08:38:18.252Z,35
2016-10-27T08:39:18.291Z,35
2016-10-27T08:40:18.285Z,30
2016-10-27T08:41:18.319Z,30
2016-10-27T08:42:18.348Z,30
2016-10-27T08:43:18.336Z,30
2016-10-27T08:44:18.370Z,30
2016-10-27T08:45:18.425Z,30
2016-10-27T08:46:18.408Z,30
2016-10-27T08:47:18.420Z,30
2016-10-27T08:48:18.425Z,30
2016-10-27T08:49:18.440Z,30
2016-10-27T08:50:18.480Z,35
2016-10-27T08:51:18.511Z,35
2016-10-27T08:52:18.511Z,30
2016-10-27T08:53:18.531Z,30
2016-10-27T08:54:18.536Z,35
2016-10-27T08:55:18.575Z,35
2016-10-27T08:56:18.571Z,35
2016-10-27T08:57:18.601Z,35
2016-10-27T08:58:18.602Z,40
2016-10-27T08:59:18.633Z,35
2016-10-27T09:00:18.651Z,35
2016-10-27T09:01:18.678Z,35
2016-10-27T09:02:18.669Z,35
2016-10-27T09:03:18.702Z,35
2016-10-27T09:04:18.704Z,35
2016-10-27T09:05:18.721Z,35
2016-10-27T09:06:18.736Z,35
2016-10-27T09:07:18.755Z,35
2016-10-27T09:08:18.778Z,40
2016-10-27T09:09:18.807Z,40
2016-10-27T09:10:18.841Z,40
2016-10-27T09:11:18.840Z,40
2016-10-27T09:12:18.855Z,35
2016-10-27T09:13:18.896Z,35
2016-10-27T09:14:18.885Z,35
2016-10-27T09:15:18.898Z,40
2016-10-27T09:16:18.943Z,45
2016-10-27T09:17:18.955Z,50
2016-10-27T09:18:18.955Z,50
2016-10-27T09:19:18.986Z,55
2016-10-27T09:20:19.022Z,50
2016-10-27T09:21:19.031Z,55
2016-10-27T09:22:19.039Z,55
2016-10-27T09:23:19.059Z,50
2016-10-27T09:24:19.058Z,50
2016-10-27T09:25:19.077Z,45
2016-10-27T09:26:19.102Z,45
2016-10-27T09:27:19.136Z,40
2016-10-27T09:28:19.132Z,35
2016-10-27T09:29:19.166Z,35
2016-10-27T09:30:19.176Z,35
2016-10-27T09:31:19.197Z,35
2016-10-27T09:32:19.223Z,35
2016-10-27T09:33:19.238Z,40
2016-10-27T09:34:19.231Z,40
2016-10-27T09:35:19.257Z,40
2016-10-27T09:36:19.315Z,40
2016-10-27T09:37:19.296Z,45
2016-10-27T09:38:19.332Z,45
2016-10-27T09:39:19.334Z,45
2016-10-27T09:40:19.366Z,45
2016-10-27T09:41:19.358Z,45
2016-10-27T09:42:19.387Z,45
2016-10-27T09:43:19.402Z,45
2016-10-27T09:44:19.478Z,40
2016-10-27T09:45:19.424Z,40
2016-10-27T09:46:19.448Z,45
2016-10-27T09:47:19.479Z,50
2016-10-27T09:48:19.497Z,55
2016-10-27T09:49:19.494Z,55
2016-10-27T09:50:19.582Z,55
2016-10-27T09:51:19.558Z,50
2016-10-27T09:52:19.549Z,40
2016-10-27T09:53:19.588Z,35
2016-10-27T09:54:19.626Z,35
2016-10-27T09:55:19.620Z,35
2016-10-27T09:56:19.635Z,35
2016-10-27T09:57:19.644Z,35
2016-10-27T09:58:19.700Z,40
2016-10-27T09:59:19.697Z,40
2016-10-27T10:00:19.723Z,45
2016-10-27T10:01:19.756Z,45
2016-10-27T10:02:19.733Z,50
2016-10-27T10:03:19.759Z,55
2016-10-27T10:04:19.772Z,55
2016-10-27T10:05:19.782Z,60
2016-10-27T10:06:19.822Z,60
2016-10-27T10:07:19.831Z,60
2016-10-27T10:08:19.861Z,55
2016-10-27T10:09:19.860Z,50
2016-10-27T10:10:19.891Z,45
2016-10-27T10:11:19.911Z,50
2016-10-27T10:12:19.925Z,50
2016-10-27T10:13:19.932Z,55
2016-10-27T10:14:19.969Z,65
2016-10-27T10:15:19.981Z,70
2016-10-27T10:16:20.010Z,70
2016-10-27T10:17:20.001Z,70
2016-10-27T10:18:20.020Z,70
2016-10-27T10:19:20.059Z,75
2016-10-27T10:20:20.061Z,75
2016-10-27T10:21:20.129Z,75
2016-10-27T10:22:20.075Z,75
2016-10-27T10:23:20.098Z,75
2016-10-27T10:24:20.133Z,70
2016-10-27T10:25:20.149Z,70
2016-10-27T10:26:20.713Z,75
2016-10-27T10:27:20.203Z,85
2016-10-27T10:28:20.240Z,90
2016-10-27T10:29:20.223Z,90
2016-10-27T10:30:20.247Z,95
2016-10-27T10:31:20.246Z,100
2016-10-27T10:32:20.273Z,105
2016-10-27T10:33:20.298Z,110
2016-10-27T10:34:20.313Z,105
2016-10-27T10:35:20.326Z,95
2016-10-27T10:36:20.358Z,90
2016-10-27T10:37:20.369Z,90
2016-10-27T10:38:20.388Z,90
2016-10-27T10:39:20.402Z,85
2016-10-27T10:40:20.415Z,85
2016-10-27T10:41:20.445Z,85
2016-10-27T10:42:20.458Z,85
2016-10-27T10:43:20.500Z,85
2016-10-27T10:44:20.511Z,85
2016-10-27T10:45:20.547Z,80
2016-10-27T10:46:20.520Z,75
2016-10-27T10:47:20.551Z,70
2016-10-27T10:48:20.774Z,70
2016-10-27T10:49:20.586Z,70
2016-10-27T10:50:20.611Z,70
2016-10-27T10:51:20.633Z,70
2016-10-27T10:52:20.656Z,75
2016-10-27T10:53:20.678Z,75
2016-10-27T10:54:20.668Z,75
2016-10-27T10:55:20.700Z,80
2016-10-27T10:56:20.734Z,80
2016-10-27T10:57:20.742Z,80
2016-10-27T10:58:20.758Z,80
2016-10-27T10:59:20.783Z,75
2016-10-27T11:00:20.792Z,75
2016-10-27T11:01:20.817Z,75
2016-10-27T11:02:20.836Z,75
2016-10-27T11:03:20.861Z,70
2016-10-27T11:04:20.875Z,70
2016-10-27T11:05:20.887Z,65
2016-10-27T11:06:20.927Z,60
2016-10-27T11:07:20.946Z,60
2016-10-27T11:08:20.926Z,55
2016-10-27T11:09:20.961Z,55
2016-10-27T11:10:20.982Z,60
2016-10-27T11:11:21.021Z,60
2016-10-27T11:12:21.006Z,60
2016-10-27T11:13:21.033Z,65
2016-10-27T11:14:21.056Z,65
2016-10-27T11:15:21.079Z,70
2016-10-27T11:16:21.124Z,70
2016-10-27T11:17:21.097Z,70
2016-10-27T11:18:21.145Z,75
2016-10-27T11:19:21.148Z,85
2016-10-27T11:20:21.178Z,85
2016-10-27T11:21:21.181Z,80
2016-10-27T11:22:21.209Z,75
2016-10-27T11:23:21.213Z,75
2016-10-27T11:24:21.241Z,75
2016-10-27T11:25:21.257Z,75
2016-10-27T11:26:21.270Z,80
2016-10-27T11:27:21.290Z,85
2016-10-27T11:28:21.326Z,85
2016-10-27T11:29:21.338Z,85
2016-10-27T11:30:21.355Z,85
2016-10-27T11:31:21.359Z,90
2016-10-27T11:32:21.397Z,90
2016-10-27T11:33:21.386Z,90
2016-10-27T11:34:21.472Z,85
2016-10-27T11:35:21.447Z,80
2016-10-27T11:36:21.460Z,80
2016-10-27T11:37:21.477Z,80
2016-10-27T11:38:21.497Z,80
2016-10-27T11:39:21.517Z,75
2016-10-27T11:40:21.541Z,70
2016-10-27T11:41:21.555Z,65
2016-10-27T11:42:21.562Z,65
2016-10-27T11:43:21.609Z,60
2016-10-27T11:44:21.597Z,60
2016-10-27T11:45:21.622Z,65
2016-10-27T11:46:21.654Z,65
2016-10-27T11:47:21.675Z,65
2016-10-27T11:48:21.702Z,65
2016-10-27T11:49:21.695Z,60
2016-10-27T11:50:21.724Z,60
2016-10-27T11:51:21.743Z,60
2016-10-27T11:52:21.751Z,60
2016-10-27T11:53:21.771Z,60
2016-10-27T11:54:21.796Z,55
2016-10-27T11:55:21.808Z,50
2016-10-27T11:56:21.824Z,50
2016-10-27T11:57:21.893Z,50
2016-10-27T11:58:21.868Z,55
2016-10-27T11:59:21.894Z,55
2016-10-27T12:00:21.953Z,50
2016-10-27T12:01:21.927Z,50
2016-10-27T12:02:21.948Z,50
2016-10-27T12:03:21.991Z,45
2016-10-27T12:04:21.989Z,45
2016-10-27T12:05:22.011Z,40
2016-10-27T12:06:22.012Z,40
2016-10-27T12:07:22.068Z,40
2016-10-27T12:08:22.053Z,40
2016-10-27T12:09:22.076Z,40
2016-10-27T12:10:22.115Z,40
2016-10-27T12:11:22.134Z,35
2016-10-27T12:12:22.125Z,35
2016-10-27T12:13:22.162Z,30
2016-10-27T12:14:22.183Z,30
2016-10-27T12:15:22.193Z,35
2016-10-27T12:16:22.215Z,35
2016-10-27T12:17:22.267Z,40
2016-10-27T12:18:22.230Z,45
2016-10-27T12:19:22.270Z,40
2016-10-27T12:20:22.286Z,40
2016-10-27T12:21:22.292Z,40
2016-10-27T12:22:22.311Z,40
2016-10-27T12:23:22.339Z,40
2016-10-27T12:24:22.355Z,45
2016-10-27T12:25:22.373Z,50
2016-10-27T12:26:22.394Z,50
2016-10-27T12:27:22.437Z,50
2016-10-27T12:28:22.411Z,50
2016-10-27T12:29:22.448Z,55
2016-10-27T12:30:22.461Z,55
2016-10-27T12:31:22.480Z,60
2016-10-27T12:32:22.502Z,70
2016-10-27T12:33:22.517Z,70
2016-10-27T12:34:22.542Z,80
2016-10-27T12:35:22.564Z,85
2016-10-27T12:36:22.577Z,105
2016-10-27T12:37:22.586Z,120
2016-10-27T12:38:22.624Z,125
2016-10-27T12:39:22.648Z,115
2016-10-27T12:40:22.643Z,115
2016-10-27T12:41:22.675Z,125
2016-10-27T12:42:22.679Z,125
2016-10-27T12:43:22.758Z,125
2016-10-27T12:44:22.723Z,120
2016-10-27T12:45:22.761Z,125
2016-10-27T12:46:22.771Z,135
2016-10-27T12:47:22.786Z,125
2016-10-27T12:48:22.817Z,120
2016-10-27T12:49:22.810Z,115
2016-10-27T12:50:22.851Z,125
2016-10-27T12:51:22.852Z,120
2016-10-27T12:52:22.885Z,105
2016-10-27T12:53:22.902Z,95
2016-10-27T12:54:23.249Z,100
2016-10-27T12:55:22.950Z,95
2016-10-27T12:56:22.952Z,100
2016-10-27T12:57:22.961Z,100
2016-10-27T12:58:23.005Z,100
2016-10-27T12:59:23.015Z,110
2016-10-27T13:00:23.045Z,130
2016-10-27T13:01:23.042Z,125
2016-10-27T13:02:23.100Z,105
2016-10-27T13:03:23.086Z,125
2016-10-27T13:04:23.099Z,120
2016-10-27T13:05:23.638Z,110
2016-10-27T13:06:23.153Z,110
2016-10-27T13:07:23.154Z,100
2016-10-27T13:08:23.188Z,95
2016-10-27T13:09:23.196Z,90
2016-10-27T13:10:23.212Z,85
2016-10-27T13:11:23.254Z,85
2016-10-27T13:12:23.267Z,85
2016-10-27T13:13:23.287Z,85
2016-10-27T13:14:23.293Z,85
2016-10-27T13:15:23.334Z,90
2016-10-27T13:16:23.337Z,85
2016-10-27T13:17:23.356Z,80
2016-10-27T13:18:23.359Z,80
2016-10-27T13:19:23.406Z,75
2016-10-27T13:20:23.418Z,70
2016-10-27T13:21:23.420Z,70
2016-10-27T13:22:23.463Z,75
2016-10-27T13:23:23.458Z,75
2016-10-27T13:24:23.518Z,80
2016-10-27T13:25:23.503Z,85
2016-10-27T13:26:23.540Z,95
2016-10-27T13:27:23.539Z,110
2016-10-27T13:28:23.605Z,110
2016-10-27T13:29:23.590Z,110
2016-10-27T13:30:23.603Z,115
2016-10-27T13:31:23.944Z,120
2016-10-27T13:32:23.647Z,125
2016-10-27T13:33:23.666Z,125
2016-10-27T13:34:23.679Z,120
2016-10-27T13:35:23.687Z,125
2016-10-27T13:36:23.707Z,140
2016-10-27T13:37:23.741Z,140
2016-10-27T13:38:23.763Z,120
2016-10-27T13:39:23.796Z,105
2016-10-27T13:40:23.806Z,85
2016-10-27T13:41:23.819Z,70
2016-10-27T13:42:23.822Z,70
2016-10-27T13:43:23.885Z,65
2016-10-27T13:44:23.865Z,60
2016-10-27T13:45:23.881Z,55
2016-10-27T13:46:23.946Z,55
2016-10-27T13:47:23.927Z,60
2016-10-27T13:48:23.946Z,65
2016-10-27T13:49:24.013Z,65
2016-10-27T13:50:23.996Z,70
2016-10-27T13:51:24.012Z,80
2016-10-27T13:52:24.031Z,85
2016-10-27T13:53:24.045Z,85
2016-10-27T13:54:24.069Z,90
2016-10-27T13:55:24.095Z,95
2016-10-27T13:56:24.107Z,95
2016-10-27T13:57:24.116Z,95
2016-10-27T13:58:24.175Z,95
2016-10-27T13:59:24.154Z,95
2016-10-27T14:00:24.177Z,100
2016-10-27T14:01:24.207Z,100
2016-10-27T14:02:24.227Z,105
2016-10-27T14:03:24.234Z,105
2016-10-27T14:04:24.257Z,105
2016-10-27T14:05:24.278Z,110
2016-10-27T14:06:24.314Z,105
2016-10-27T14:07:24.315Z,105
2016-10-27T14:08:24.323Z,105
2016-10-27T14:09:24.361Z,105
2016-10-27T14:10:24.378Z,105
2016-10-27T14:11:24.396Z,105
2016-10-27T14:12:24.400Z,105
2016-10-27T14:13:24.436Z,100
2016-10-27T14:14:24.426Z,100
2016-10-27T14:15:24.468Z,100
2016-10-27T14:16:24.499Z,100
2016-10-27T14:17:24.516Z,100
2016-10-27T14:18:24.514Z,100
2016-10-27T14:19:24.547Z,105
2016-10-27T14:20:24.541Z,110
2016-10-27T14:21:24.577Z,115
2016-10-27T14:22:24.605Z,120
2016-10-27T14:23:24.618Z,120
2016-10-27T14:24:24.640Z,120
2016-10-27T14:25:24.649Z,120
2016-10-27T14:26:24.671Z,120
2016-10-27T14:27:24.711Z,120
2016-10-27T14:28:24.724Z,125
2016-10-27T14:29:24.730Z,125